sensor_id;sensor_type;location;lat;lon;timestamp;pressure;altitude;pressure_sealevel;temperature;humidity
45327;BME280;31062;49.678;24.560;2023-12-04T00:01:07;98748.66;;;-1.85;76.00
45327;BME280;31062;49.678;24.560;2023-12-04T00:04:14;98743.88;;;-1.90;75.99
45327;BME280;31062;49.678;24.560;2023-12-04T00:07:20;98758.34;;;-1.79;75.56
45327;BME280;31062;49.678;24.560;2023-12-04T00:10:26;98760.81;;;-1.81;74.12
45327;BME280;31062;49.678;24.560;2023-12-04T00:13:31;98764.00;;;-1.82;74.38
45327;BME280;31062;49.678;24.560;2023-12-04T00:16:37;98771.88;;;-1.84;74.42
45327;BME280;31062;49.678;24.560;2023-12-04T00:19:43;98760.69;;;-1.92;73.62
45327;BME280;31062;49.678;24.560;2023-12-04T00:22:49;98774.81;;;-1.88;73.21
45327;BME280;31062;49.678;24.560;2023-12-04T00:25:55;98785.22;;;-1.86;73.62
45327;BME280;31062;49.678;24.560;2023-12-04T00:29:02;98786.91;;;-1.89;73.19
45327;BME280;31062;49.678;24.560;2023-12-04T00:32:07;98789.38;;;-1.91;73.19
45327;BME280;31062;49.678;24.560;2023-12-04T00:35:13;98791.34;;;-1.91;72.56
45327;BME280;31062;49.678;24.560;2023-12-04T00:38:19;98796.50;;;-1.93;72.12
45327;BME280;31062;49.678;24.560;2023-12-04T00:41:26;98778.56;;;-2.06;71.67
45327;BME280;31062;49.678;24.560;2023-12-04T00:44:32;98798.69;;;-1.97;72.13
45327;BME280;31062;49.678;24.560;2023-12-04T00:47:38;98790.94;;;-2.04;71.18
45327;BME280;31062;49.678;24.560;2023-12-04T00:50:47;98801.81;;;-2.04;70.32
45327;BME280;31062;49.678;24.560;2023-12-04T00:54:03;98798.28;;;-2.11;70.31
45327;BME280;31062;49.678;24.560;2023-12-04T00:57:09;98803.16;;;-2.15;70.58
45327;BME280;31062;49.678;24.560;2023-12-04T01:00:15;98818.09;;;-2.04;71.04
45327;BME280;31062;49.678;24.560;2023-12-04T01:03:21;98815.91;;;-2.00;70.61
45327;BME280;31062;49.678;24.560;2023-12-04T01:06:07;98811.69;;;-2.01;70.19
45327;BME280;31062;49.678;24.560;2023-12-04T01:08:54;98811.97;;;-1.99;70.08
45327;BME280;31062;49.678;24.560;2023-12-04T01:11:59;98808.72;;;-2.03;69.42
45327;BME280;31062;49.678;24.560;2023-12-04T01:15:05;98798.81;;;-2.07;68.91
45327;BME280;31062;49.678;24.560;2023-12-04T01:18:12;98809.66;;;-2.07;69.41
45327;BME280;31062;49.678;24.560;2023-12-04T01:21:18;98813.06;;;-2.12;68.94
45327;BME280;31062;49.678;24.560;2023-12-04T01:24:24;98813.00;;;-2.17;69.72
45327;BME280;31062;49.678;24.560;2023-12-04T01:27:29;98809.53;;;-2.18;69.86
45327;BME280;31062;49.678;24.560;2023-12-04T01:30:35;98795.06;;;-2.29;70.14
45327;BME280;31062;49.678;24.560;2023-12-04T01:33:40;98810.22;;;-2.23;69.26
45327;BME280;31062;49.678;24.560;2023-12-04T01:36:46;98818.38;;;-2.23;70.64
45327;BME280;31062;49.678;24.560;2023-12-04T01:39:52;98818.38;;;-2.23;70.88
45327;BME280;31062;49.678;24.560;2023-12-04T01:42:58;98812.94;;;-2.23;70.43
45327;BME280;31062;49.678;24.560;2023-12-04T01:46:04;98689.41;;;-3.08;70.20
45327;BME280;31062;49.678;24.560;2023-12-04T01:49:11;98810.69;;;-2.24;70.03
45327;BME280;31062;49.678;24.560;2023-12-04T01:52:17;98815.38;;;-2.25;70.65
45327;BME280;31062;49.678;24.560;2023-12-04T01:55:22;98820.13;;;-2.20;70.73
45327;BME280;31062;49.678;24.560;2023-12-04T01:58:28;98824.91;;;-2.15;71.17
45327;BME280;31062;49.678;24.560;2023-12-04T02:01:35;98817.28;;;-2.11;70.18
45327;BME280;31062;49.678;24.560;2023-12-04T02:04:41;98825.97;;;-2.07;71.04
45327;BME280;31062;49.678;24.560;2023-12-04T02:07:48;98822.03;;;-2.06;70.44
45327;BME280;31062;49.678;24.560;2023-12-04T02:10:54;98821.06;;;-2.02;70.07
45327;BME280;31062;49.678;24.560;2023-12-04T02:14:00;98806.69;;;-2.09;69.97
45327;BME280;31062;49.678;24.560;2023-12-04T02:17:06;98803.31;;;-2.03;71.06
45327;BME280;31062;49.678;24.560;2023-12-04T02:20:14;98817.25;;;-1.90;70.03
45327;BME280;31062;49.678;24.560;2023-12-04T02:23:19;98824.88;;;-1.74;70.73
45327;BME280;31062;49.678;24.560;2023-12-04T02:26:31;98813.38;;;-1.63;70.08
45327;BME280;31062;49.678;24.560;2023-12-04T02:29:47;98830.25;;;-1.54;70.12
45327;BME280;31062;49.678;24.560;2023-12-04T02:33:00;98822.91;;;-1.48;70.37
45327;BME280;31062;49.678;24.560;2023-12-04T02:36:09;98806.28;;;-1.55;69.71
45327;BME280;31062;49.678;24.560;2023-12-04T02:39:16;98818.06;;;-1.38;69.05
45327;BME280;31062;49.678;24.560;2023-12-04T02:42:22;98821.31;;;-1.34;69.29
45327;BME280;31062;49.678;24.560;2023-12-04T02:45:28;98822.34;;;-1.32;69.17
45327;BME280;31062;49.678;24.560;2023-12-04T02:48:34;98824.25;;;-1.38;68.70
45327;BME280;31062;49.678;24.560;2023-12-04T02:51:41;98812.31;;;-1.46;68.65
45327;BME280;31062;49.678;24.560;2023-12-04T02:54:47;98836.34;;;-1.39;68.32
45327;BME280;31062;49.678;24.560;2023-12-04T02:57:53;98831.84;;;-1.42;68.32
45327;BME280;31062;49.678;24.560;2023-12-04T03:00:39;98827.91;;;-1.41;68.91
45327;BME280;31062;49.678;24.560;2023-12-04T03:03:25;98832.38;;;-1.43;68.85
45327;BME280;31062;49.678;24.560;2023-12-04T03:06:11;98834.75;;;-1.51;68.33
45327;BME280;31062;49.678;24.560;2023-12-04T03:08:58;98819.81;;;-1.61;68.26
45327;BME280;31062;49.678;24.560;2023-12-04T03:12:04;98823.72;;;-1.68;68.94
45327;BME280;31062;49.678;24.560;2023-12-04T03:14:50;98846.03;;;-1.58;67.93
45327;BME280;31062;49.678;24.560;2023-12-04T03:17:37;98840.53;;;-1.63;68.03
45327;BME280;31062;49.678;24.560;2023-12-04T03:20:23;98836.81;;;-1.66;68.54
45327;BME280;31062;49.678;24.560;2023-12-04T03:23:09;98840.78;;;-1.67;68.22
45327;BME280;31062;49.678;24.560;2023-12-04T03:25:55;98845.47;;;-1.68;67.44
45327;BME280;31062;49.678;24.560;2023-12-04T03:28:41;98848.84;;;-1.73;67.36
45327;BME280;31062;49.678;24.560;2023-12-04T03:31:47;98839.81;;;-1.84;67.25
45327;BME280;31062;49.678;24.560;2023-12-04T03:34:32;98843.09;;;-1.80;67.31
45327;BME280;31062;49.678;24.560;2023-12-04T03:37:19;98847.03;;;-1.81;67.73
45327;BME280;31062;49.678;24.560;2023-12-04T03:40:25;98835.06;;;-1.89;66.99
45327;BME280;31062;49.678;24.560;2023-12-04T03:43:30;98845.25;;;-1.84;67.11
45327;BME280;31062;49.678;24.560;2023-12-04T03:46:36;98843.50;;;-1.87;67.32
45327;BME280;31062;49.678;24.560;2023-12-04T03:49:42;98852.34;;;-1.92;66.70
45327;BME280;31062;49.678;24.560;2023-12-04T03:52:48;98849.56;;;-1.98;66.79
45327;BME280;31062;49.678;24.560;2023-12-04T03:55:53;98846.78;;;-2.03;67.06
45327;BME280;31062;49.678;24.560;2023-12-04T03:58:59;98820.41;;;-2.18;66.43
45327;BME280;31062;49.678;24.560;2023-12-04T04:01:45;98851.63;;;-2.08;66.69
45327;BME280;31062;49.678;24.560;2023-12-04T04:04:32;98847.44;;;-2.09;67.95
45327;BME280;31062;49.678;24.560;2023-12-04T04:07:37;98848.66;;;-2.10;67.04
45327;BME280;31062;49.678;24.560;2023-12-04T04:10:43;98848.66;;;-2.10;67.25
45327;BME280;31062;49.678;24.560;2023-12-04T04:13:29;98832.84;;;-2.11;66.68
45327;BME280;31062;49.678;24.560;2023-12-04T04:16:15;98768.13;;;-2.53;66.65
45327;BME280;31062;49.678;24.560;2023-12-04T04:19:01;98833.13;;;-2.09;65.81
45327;BME280;31062;49.678;24.560;2023-12-04T04:21:47;98828.84;;;-2.16;65.88
45327;BME280;31062;49.678;24.560;2023-12-04T04:24:34;98825.31;;;-2.22;66.42
45327;BME280;31062;49.678;24.560;2023-12-04T04:27:19;98820.66;;;-2.36;66.26
45327;BME280;31062;49.678;24.560;2023-12-04T04:30:25;98836.97;;;-2.36;65.58
45327;BME280;31062;49.678;24.560;2023-12-04T04:33:12;98818.19;;;-2.54;65.16
45327;BME280;31062;49.678;24.560;2023-12-04T04:35:57;98826.72;;;-2.61;65.79
45327;BME280;31062;49.678;24.560;2023-12-04T04:38:43;98847.50;;;-2.58;64.95
45327;BME280;31062;49.678;24.560;2023-12-04T04:41:49;98843.69;;;-2.66;65.18
45327;BME280;31062;49.678;24.560;2023-12-04T04:44:35;98850.00;;;-2.75;65.90
45327;BME280;31062;49.678;24.560;2023-12-04T04:47:21;98851.13;;;-2.81;64.78
45327;BME280;31062;49.678;24.560;2023-12-04T04:50:26;98856.16;;;-2.89;65.24
45327;BME280;31062;49.678;24.560;2023-12-04T04:53:32;98855.41;;;-2.90;65.22
45327;BME280;31062;49.678;24.560;2023-12-04T04:56:39;98857.13;;;-2.92;65.40
45327;BME280;31062;49.678;24.560;2023-12-04T04:59:44;98856.38;;;-2.93;65.67
45327;BME280;31062;49.678;24.560;2023-12-04T05:02:50;98848.22;;;-2.93;65.89
45327;BME280;31062;49.678;24.560;2023-12-04T05:05:56;98860.56;;;-2.92;65.40
45327;BME280;31062;49.678;24.560;2023-12-04T05:09:03;98862.06;;;-2.91;64.94
45327;BME280;31062;49.678;24.560;2023-12-04T05:12:09;98853.84;;;-2.96;65.57
45327;BME280;31062;49.678;24.560;2023-12-04T05:15:15;98860.28;;;-2.94;65.78
45327;BME280;31062;49.678;24.560;2023-12-04T05:18:21;98864.78;;;-2.91;65.32
45327;BME280;31062;49.678;24.560;2023-12-04T05:21:27;98864.03;;;-2.91;65.78
45327;BME280;31062;49.678;24.560;2023-12-04T05:24:33;98871.41;;;-2.92;64.31
45327;BME280;31062;49.678;24.560;2023-12-04T05:27:38;98859.34;;;-2.91;64.95
45327;BME280;31062;49.678;24.560;2023-12-04T05:30:46;98876.94;;;-2.86;64.51
45327;BME280;31062;49.678;24.560;2023-12-04T05:33:51;98882.56;;;-2.90;64.89
45327;BME280;31062;49.678;24.560;2023-12-04T05:36:58;98876.38;;;-2.90;65.05
45327;BME280;31062;49.678;24.560;2023-12-04T05:40:04;98873.03;;;-3.00;65.13
45327;BME280;31062;49.678;24.560;2023-12-04T05:43:10;98880.22;;;-2.97;65.50
45327;BME280;31062;49.678;24.560;2023-12-04T05:46:16;98853.56;;;-3.13;64.96
45327;BME280;31062;49.678;24.560;2023-12-04T05:49:22;98883.50;;;-2.93;64.43
45327;BME280;31062;49.678;24.560;2023-12-04T05:52:28;98887.06;;;-2.86;64.84
45327;BME280;31062;49.678;24.560;2023-12-04T05:55:34;98879.56;;;-2.92;64.28
45327;BME280;31062;49.678;24.560;2023-12-04T05:58:39;98891.06;;;-2.82;63.54
45327;BME280;31062;49.678;24.560;2023-12-04T06:01:45;98895.09;;;-2.77;63.67
45327;BME280;31062;49.678;24.560;2023-12-04T06:04:51;98899.97;;;-2.81;64.49
45327;BME280;31062;49.678;24.560;2023-12-04T06:07:58;98912.31;;;-2.80;63.83
45327;BME280;31062;49.678;24.560;2023-12-04T06:11:04;98907.44;;;-2.76;63.79
45327;BME280;31062;49.678;24.560;2023-12-04T06:14:10;98905.28;;;-2.72;63.58
45327;BME280;31062;49.678;24.560;2023-12-04T06:17:16;98808.31;;;-3.36;63.93
45327;BME280;31062;49.678;24.560;2023-12-04T06:20:22;98907.63;;;-2.65;63.81
45327;BME280;31062;49.678;24.560;2023-12-04T06:23:30;98899.00;;;-2.78;63.54
45327;BME280;31062;49.678;24.560;2023-12-04T06:26:36;98903.50;;;-2.75;62.18
45327;BME280;31062;49.678;24.560;2023-12-04T06:29:44;98905.56;;;-2.85;62.79
45327;BME280;31062;49.678;24.560;2023-12-04T06:32:50;98907.63;;;-2.95;63.53
45327;BME280;31062;49.678;24.560;2023-12-04T06:35:56;98896.59;;;-3.06;63.79
45327;BME280;31062;49.678;24.560;2023-12-04T06:39:03;98916.69;;;-2.98;63.60
45327;BME280;31062;49.678;24.560;2023-12-04T06:41:51;98919.78;;;-2.90;64.62
45327;BME280;31062;49.678;24.560;2023-12-04T06:44:57;98911.56;;;-2.81;64.08
45327;BME280;31062;49.678;24.560;2023-12-04T06:48:03;98926.63;;;-2.65;64.26
45327;BME280;31062;49.678;24.560;2023-12-04T06:50:49;98921.66;;;-2.52;63.99
45327;BME280;31062;49.678;24.560;2023-12-04T06:53:35;98922.09;;;-2.39;62.99
45327;BME280;31062;49.678;24.560;2023-12-04T06:56:41;98922.50;;;-2.26;63.02
45327;BME280;31062;49.678;24.560;2023-12-04T06:59:47;98924.31;;;-2.02;63.23
45327;BME280;31062;49.678;24.560;2023-12-04T07:02:33;98833.03;;;-2.35;64.29
45327;BME280;31062;49.678;24.560;2023-12-04T07:05:39;98915.91;;;-1.64;62.09
45327;BME280;31062;49.678;24.560;2023-12-04T07:08:47;98927.56;;;-1.43;61.22
45327;BME280;31062;49.678;24.560;2023-12-04T07:11:52;98922.16;;;-1.38;60.90
45327;BME280;31062;49.678;24.560;2023-12-04T07:14:58;98838.06;;;-1.87;60.36
45327;BME280;31062;49.678;24.560;2023-12-04T07:18:05;98933.75;;;-1.17;60.30
45327;BME280;31062;49.678;24.560;2023-12-04T07:21:11;98939.81;;;-1.07;60.23
45327;BME280;31062;49.678;24.560;2023-12-04T07:24:16;98925.50;;;-1.02;60.64
45327;BME280;31062;49.678;24.560;2023-12-04T07:27:22;98941.28;;;-0.80;60.42
45327;BME280;31062;49.678;24.560;2023-12-04T07:30:28;98933.97;;;-0.69;60.01
45327;BME280;31062;49.678;24.560;2023-12-04T07:33:34;98940.47;;;-0.61;59.29
45327;BME280;31062;49.678;24.560;2023-12-04T07:36:40;98939.25;;;-0.60;59.52
45327;BME280;31062;49.678;24.560;2023-12-04T07:39:45;98939.53;;;-0.52;59.51
45327;BME280;31062;49.678;24.560;2023-12-04T07:42:51;98935.09;;;-0.50;58.92
45327;BME280;31062;49.678;24.560;2023-12-04T07:45:57;98943.84;;;-0.40;58.60
45327;BME280;31062;49.678;24.560;2023-12-04T07:48:44;98938.88;;;-0.42;59.30
45327;BME280;31062;49.678;24.560;2023-12-04T07:51:49;98860.44;;;-1.00;58.77
45327;BME280;31062;49.678;24.560;2023-12-04T07:54:56;98947.31;;;-0.39;59.29
45327;BME280;31062;49.678;24.560;2023-12-04T07:58:01;98937.47;;;-0.31;59.04
45327;BME280;31062;49.678;24.560;2023-12-04T08:01:07;98947.31;;;-0.39;58.90
45327;BME280;31062;49.678;24.560;2023-12-04T08:04:13;98945.28;;;-0.45;59.76
45327;BME280;31062;49.678;24.560;2023-12-04T08:07:19;98950.22;;;-0.49;58.72
45327;BME280;31062;49.678;24.560;2023-12-04T08:10:25;98956.84;;;-0.55;58.58
45327;BME280;31062;49.678;24.560;2023-12-04T08:13:30;98961.47;;;-0.67;58.53
45327;BME280;31062;49.678;24.560;2023-12-04T08:16:36;98960.38;;;-0.75;58.54
45327;BME280;31062;49.678;24.560;2023-12-04T08:19:42;98957.56;;;-0.86;59.22
45327;BME280;31062;49.678;24.560;2023-12-04T08:22:49;98961.47;;;-0.93;59.48
45327;BME280;31062;49.678;24.560;2023-12-04T08:25:54;98963.38;;;-0.99;60.25
45327;BME280;31062;49.678;24.560;2023-12-04T08:28:40;98959.38;;;-1.03;59.52
45327;BME280;31062;49.678;24.560;2023-12-04T08:31:46;98962.34;;;-1.01;60.23
45327;BME280;31062;49.678;24.560;2023-12-04T08:34:51;98974.59;;;-0.91;60.48
45327;BME280;31062;49.678;24.560;2023-12-04T08:37:57;98979.66;;;-0.78;60.46
45327;BME280;31062;49.678;24.560;2023-12-04T08:41:04;98944.75;;;-0.80;60.61
45327;BME280;31062;49.678;24.560;2023-12-04T08:44:10;98984.38;;;-0.48;60.41
45327;BME280;31062;49.678;24.560;2023-12-04T08:47:16;98972.09;;;-0.37;59.67
45327;BME280;31062;49.678;24.560;2023-12-04T08:50:22;98975.88;;;-0.29;60.55
45327;BME280;31062;49.678;24.560;2023-12-04T08:53:28;98964.72;;;-0.31;59.96
45327;BME280;31062;49.678;24.560;2023-12-04T08:56:33;98977.19;;;-0.19;60.53
45327;BME280;31062;49.678;24.560;2023-12-04T08:59:39;98977.00;;;-0.10;59.55
45327;BME280;31062;49.678;24.560;2023-12-04T09:02:24;98967.88;;;-0.07;60.14
45327;BME280;31062;49.678;24.560;2023-12-04T09:05:11;98969.44;;;0.05;59.67
45327;BME280;31062;49.678;24.560;2023-12-04T09:08:18;98971.69;;;0.12;60.27
45327;BME280;31062;49.678;24.560;2023-12-04T09:11:42;98973.00;;;0.22;59.34
45327;BME280;31062;49.678;24.560;2023-12-04T09:14:48;98977.47;;;0.25;59.33
45327;BME280;31062;49.678;24.560;2023-12-04T09:17:54;98967.09;;;0.29;59.00
45327;BME280;31062;49.678;24.560;2023-12-04T09:21:02;98967.59;;;0.33;58.89
45327;BME280;31062;49.678;24.560;2023-12-04T09:24:07;98964.66;;;0.43;59.27
45327;BME280;31062;49.678;24.560;2023-12-04T09:27:13;98961.22;;;0.48;59.24
45327;BME280;31062;49.678;24.560;2023-12-04T09:30:19;98958.00;;;0.55;59.54
45327;BME280;31062;49.678;24.560;2023-12-04T09:33:06;98961.78;;;0.63;59.92
45327;BME280;31062;49.678;24.560;2023-12-04T09:35:52;98954.34;;;0.69;59.29
45327;BME280;31062;49.678;24.560;2023-12-04T09:38:38;98957.34;;;0.71;58.74
45327;BME280;31062;49.678;24.560;2023-12-04T09:41:44;98950.41;;;0.70;58.26
45327;BME280;31062;49.678;24.560;2023-12-04T09:44:52;98959.81;;;0.69;58.42
45327;BME280;31062;49.678;24.560;2023-12-04T09:47:58;98942.44;;;0.72;58.44
45327;BME280;31062;49.678;24.560;2023-12-04T09:51:05;98945.47;;;0.85;59.44
45327;BME280;31062;49.678;24.560;2023-12-04T09:54:12;98935.56;;;0.93;59.30
45327;BME280;31062;49.678;24.560;2023-12-04T09:57:18;98935.09;;;1.00;58.69
45327;BME280;31062;49.678;24.560;2023-12-04T10:00:24;98932.09;;;1.04;58.43
45327;BME280;31062;49.678;24.560;2023-12-04T10:03:30;98926.16;;;1.05;58.22
45327;BME280;31062;49.678;24.560;2023-12-04T10:06:37;98817.59;;;0.33;58.52
45327;BME280;31062;49.678;24.560;2023-12-04T10:09:43;98920.22;;;1.12;58.21
45327;BME280;31062;49.678;24.560;2023-12-04T10:12:49;98916.75;;;1.17;58.33
45327;BME280;31062;49.678;24.560;2023-12-04T10:15:54;98908.28;;;1.15;57.79
45327;BME280;31062;49.678;24.560;2023-12-04T10:19:18;98915.25;;;1.16;58.50
45327;BME280;31062;49.678;24.560;2023-12-04T10:22:07;98910.28;;;1.20;58.52
45327;BME280;31062;49.678;24.560;2023-12-04T10:25:15;98908.28;;;1.15;57.62
45327;BME280;31062;49.678;24.560;2023-12-04T10:28:21;98897.34;;;1.04;57.64
45327;BME280;31062;49.678;24.560;2023-12-04T10:31:32;98852.91;;;0.70;57.98
45327;BME280;31062;49.678;24.560;2023-12-04T10:34:37;98860.56;;;0.61;57.84
45327;BME280;31062;49.678;24.560;2023-12-04T10:37:43;98895.59;;;0.90;58.01
45327;BME280;31062;49.678;24.560;2023-12-04T10:40:49;98901.06;;;0.90;58.17
45327;BME280;31062;49.678;24.560;2023-12-04T10:43:56;98756.75;;;-0.06;57.94
45327;BME280;31062;49.678;24.560;2023-12-04T10:47:02;98902.06;;;0.93;58.34
45327;BME280;31062;49.678;24.560;2023-12-04T10:50:09;98923.91;;;0.93;58.25
45327;BME280;31062;49.678;24.560;2023-12-04T10:53:16;98891.41;;;0.89;58.53
45327;BME280;31062;49.678;24.560;2023-12-04T10:56:36;98887.41;;;0.85;59.05
45327;BME280;31062;49.678;24.560;2023-12-04T10:59:42;98898.59;;;0.92;58.13
45327;BME280;31062;49.678;24.560;2023-12-04T11:02:33;98892.88;;;0.90;58.29
45327;BME280;31062;49.678;24.560;2023-12-04T11:05:20;98892.38;;;0.86;58.54
45327;BME280;31062;49.678;24.560;2023-12-04T11:08:14;98874.94;;;0.67;58.44
45327;BME280;31062;49.678;24.560;2023-12-04T11:11:34;98898.06;;;0.82;58.58
45327;BME280;31062;49.678;24.560;2023-12-04T11:14:51;98901.28;;;0.81;58.58
45327;BME280;31062;49.678;24.560;2023-12-04T11:17:59;98905.00;;;0.83;58.62
45327;BME280;31062;49.678;24.560;2023-12-04T11:21:10;98902.06;;;0.87;59.22
45327;BME280;31062;49.678;24.560;2023-12-04T11:24:17;98903.56;;;0.94;59.12
45327;BME280;31062;49.678;24.560;2023-12-04T11:27:23;98896.34;;;0.96;59.51
45327;BME280;31062;49.678;24.560;2023-12-04T11:30:30;98906.56;;;1.07;59.33
45327;BME280;31062;49.678;24.560;2023-12-04T11:33:37;98899.13;;;1.13;58.73
45327;BME280;31062;49.678;24.560;2023-12-04T11:36:44;98842.97;;;0.73;58.54
45327;BME280;31062;49.678;24.560;2023-12-04T11:39:51;98903.31;;;1.19;58.76
45327;BME280;31062;49.678;24.560;2023-12-04T11:42:58;98909.28;;;1.23;58.40
45327;BME280;31062;49.678;24.560;2023-12-04T11:46:08;98895.88;;;1.26;58.48
45327;BME280;31062;49.678;24.560;2023-12-04T11:49:29;98898.84;;;1.28;58.00
45327;BME280;31062;49.678;24.560;2023-12-04T11:52:36;98900.84;;;1.21;57.89
45327;BME280;31062;49.678;24.560;2023-12-04T11:55:42;98899.88;;;1.19;58.18
45327;BME280;31062;49.678;24.560;2023-12-04T11:58:48;98896.63;;;1.20;58.68
45327;BME280;31062;49.678;24.560;2023-12-04T12:01:55;98895.38;;;1.21;57.99
45327;BME280;31062;49.678;24.560;2023-12-04T12:05:01;98890.19;;;1.18;57.97
45327;BME280;31062;49.678;24.560;2023-12-04T12:08:08;98894.38;;;1.13;57.86
45327;BME280;31062;49.678;24.560;2023-12-04T12:11:14;98891.16;;;1.09;58.31
45327;BME280;31062;49.678;24.560;2023-12-04T12:14:21;98886.94;;;1.08;58.13
45327;BME280;31062;49.678;24.560;2023-12-04T12:17:27;98887.66;;;1.09;58.15
45327;BME280;31062;49.678;24.560;2023-12-04T12:20:36;98872.78;;;1.10;58.51
45327;BME280;31062;49.678;24.560;2023-12-04T12:23:44;98873.53;;;1.10;57.91
45327;BME280;31062;49.678;24.560;2023-12-04T12:26:50;98887.94;;;1.05;57.30
45327;BME280;31062;49.678;24.560;2023-12-04T12:29:56;98877.97;;;0.91;58.74
45327;BME280;31062;49.678;24.560;2023-12-04T12:33:02;98870.28;;;0.84;58.66
45327;BME280;31062;49.678;24.560;2023-12-04T12:36:09;98862.09;;;0.84;59.00
45327;BME280;31062;49.678;24.560;2023-12-04T12:39:15;98865.06;;;0.86;58.16
45327;BME280;31062;49.678;24.560;2023-12-04T12:42:25;98866.06;;;0.83;58.91
45327;BME280;31062;49.678;24.560;2023-12-04T12:45:47;98852.16;;;0.70;58.78
45327;BME280;31062;49.678;24.560;2023-12-04T12:48:36;98849.63;;;0.61;58.60
45327;BME280;31062;49.678;24.560;2023-12-04T12:51:42;98857.09;;;0.66;58.54
45327;BME280;31062;49.678;24.560;2023-12-04T12:54:48;98847.91;;;0.58;58.35
45327;BME280;31062;49.678;24.560;2023-12-04T12:57:57;98859.78;;;0.55;59.18
45327;BME280;31062;49.678;24.560;2023-12-04T13:01:04;98867.22;;;0.49;58.82
45327;BME280;31062;49.678;24.560;2023-12-04T13:04:13;98806.09;;;0.02;59.55
45327;BME280;31062;49.678;24.560;2023-12-04T13:07:19;98863.50;;;0.40;59.75
45327;BME280;31062;49.678;24.560;2023-12-04T13:10:25;98868.19;;;0.40;59.96
45327;BME280;31062;49.678;24.560;2023-12-04T13:13:31;98868.94;;;0.40;59.73
45327;BME280;31062;49.678;24.560;2023-12-04T13:16:37;98865.72;;;0.42;60.10
45327;BME280;31062;49.678;24.560;2023-12-04T13:19:42;98866.44;;;0.43;60.31
45327;BME280;31062;49.678;24.560;2023-12-04T13:22:48;98866.44;;;0.43;60.46
45327;BME280;31062;49.678;24.560;2023-12-04T13:25:54;98867.44;;;0.39;59.84
45327;BME280;31062;49.678;24.560;2023-12-04T13:29:00;98847.56;;;0.22;59.99
45327;BME280;31062;49.678;24.560;2023-12-04T13:32:05;98871.13;;;0.31;60.31
45327;BME280;31062;49.678;24.560;2023-12-04T13:35:12;98872.16;;;0.33;60.38
45327;BME280;31062;49.678;24.560;2023-12-04T13:38:18;98875.63;;;0.39;60.50
45327;BME280;31062;49.678;24.560;2023-12-04T13:41:24;98844.56;;;0.20;60.13
45327;BME280;31062;49.678;24.560;2023-12-04T13:44:29;98885.34;;;0.52;60.19
45327;BME280;31062;49.678;24.560;2023-12-04T13:47:35;98881.59;;;0.49;59.71
45327;BME280;31062;49.678;24.560;2023-12-04T13:50:42;98884.84;;;0.48;59.95
45327;BME280;31062;49.678;24.560;2023-12-04T13:53:48;98876.41;;;0.46;60.31
45327;BME280;31062;49.678;24.560;2023-12-04T13:56:53;98875.94;;;0.53;59.66
45327;BME280;31062;49.678;24.560;2023-12-04T13:59:59;98874.19;;;0.55;59.39
45327;BME280;31062;49.678;24.560;2023-12-04T14:07:00;98880.84;;;0.49;59.73
45327;BME280;31062;49.678;24.560;2023-12-04T14:10:06;98888.81;;;0.47;60.16
45327;BME280;31062;49.678;24.560;2023-12-04T14:13:13;98888.53;;;0.45;59.79
45327;BME280;31062;49.678;24.560;2023-12-04T14:16:18;98886.56;;;0.45;59.67
45327;BME280;31062;49.678;24.560;2023-12-04T14:19:24;98870.44;;;0.42;59.14
45327;BME280;31062;49.678;24.560;2023-12-04T14:22:30;98868.94;;;0.40;59.34
45327;BME280;31062;49.678;24.560;2023-12-04T14:25:36;98876.59;;;0.36;59.38
45327;BME280;31062;49.678;24.560;2023-12-04T14:28:41;98862.69;;;0.23;58.79
45327;BME280;31062;49.678;24.560;2023-12-04T14:31:47;98881.56;;;0.32;58.93
45327;BME280;31062;49.678;24.560;2023-12-04T14:34:52;98883.78;;;0.28;59.18
45327;BME280;31062;49.678;24.560;2023-12-04T14:37:58;98877.28;;;0.20;58.67
45327;BME280;31062;49.678;24.560;2023-12-04T14:41:04;98872.53;;;0.04;58.23
45327;BME280;31062;49.678;24.560;2023-12-04T14:44:10;98876.44;;;-0.03;58.46
45327;BME280;31062;49.678;24.560;2023-12-04T14:46:55;98888.31;;;-0.06;58.34
45327;BME280;31062;49.678;24.560;2023-12-04T14:50:02;98895.50;;;-0.08;58.55
45327;BME280;31062;49.678;24.560;2023-12-04T14:53:08;98886.28;;;-0.16;59.84
45327;BME280;31062;49.678;24.560;2023-12-04T14:56:14;98887.03;;;-0.16;59.94
45327;BME280;31062;49.678;24.560;2023-12-04T14:59:21;98879.09;;;-0.19;59.58
45327;BME280;31062;49.678;24.560;2023-12-04T15:02:29;98883.84;;;-0.09;60.25
45327;BME280;31062;49.678;24.560;2023-12-04T15:05:34;98888.03;;;-0.13;60.02
45327;BME280;31062;49.678;24.560;2023-12-04T15:08:40;98885.97;;;-0.24;59.34
45327;BME280;31062;49.678;24.560;2023-12-04T15:11:44;98884.47;;;-0.30;60.18
45327;BME280;31062;49.678;24.560;2023-12-04T15:14:36;98884.22;;;-0.32;60.58
45327;BME280;31062;49.678;24.560;2023-12-04T15:17:23;98895.59;;;-0.34;60.22
45327;BME280;31062;49.678;24.560;2023-12-04T15:20:35;98891.88;;;-0.36;60.77
45327;BME280;31062;49.678;24.560;2023-12-04T15:23:41;98898.28;;;-0.39;59.85
45327;BME280;31062;49.678;24.560;2023-12-04T15:26:47;98899.00;;;-0.45;60.60
45327;BME280;31062;49.678;24.560;2023-12-04T15:29:53;98896.41;;;-0.59;59.39
45327;BME280;31062;49.678;24.560;2023-12-04T15:32:58;98883.63;;;-0.79;59.31
45327;BME280;31062;49.678;24.560;2023-12-04T15:36:04;98880.31;;;-0.89;59.90
45327;BME280;31062;49.678;24.560;2023-12-04T15:39:10;98886.94;;;-0.95;59.56
45327;BME280;31062;49.678;24.560;2023-12-04T15:42:16;98886.41;;;-0.99;59.77
45327;BME280;31062;49.678;24.560;2023-12-04T15:45:22;98894.31;;;-1.01;60.07
45327;BME280;31062;49.678;24.560;2023-12-04T15:48:08;98877.47;;;-1.05;60.48
45327;BME280;31062;49.678;24.560;2023-12-04T15:51:14;98895.06;;;-1.01;59.71
45327;BME280;31062;49.678;24.560;2023-12-04T15:54:20;98882.91;;;-1.05;60.19
45327;BME280;31062;49.678;24.560;2023-12-04T15:57:26;98886.78;;;-1.12;60.21
45327;BME280;31062;49.678;24.560;2023-12-04T16:00:12;98882.81;;;-1.16;60.76
45327;BME280;31062;49.678;24.560;2023-12-04T16:03:18;98881.06;;;-1.19;60.79
45327;BME280;31062;49.678;24.560;2023-12-04T16:06:24;98881.19;;;-1.29;60.15